Time;durP1;ratioP1;P1;durP2;ratioP2;P2;SDS_P1;SDS_P2;PMS_P1;PMS_P2;Temp;Humidity;BMP_temperature;BMP_pressure;BME280_temperature;BME280_humidity;BME280_pressure;Samples;Min_cycle;Max_cycle;Signal;HPM_P1;HPM_P2
2023/02/24 00:01:14;;;;;;;;;;;;;;;7.33;97.62;100022.34;5093400;28;19919;-36
2023/02/24 00:03:40;;;;;;;;;;;;;;;7.18;97.44;100023.13;5093133;28;20379;-36
2023/02/24 00:06:10;;;;;;;;;;;;;;;6.87;100.00;100011.69;5093117;28;20041;-36
2023/02/24 00:08:39;;;;;;;;;;;;;;;6.85;100.00;100009.22;5092916;28;19927;-36
2023/02/24 00:11:12;;;;;;;;;;;;;;;6.83;100.00;100014.72;5093382;28;19919;-35
2023/02/24 00:13:38;;;;;;;;;;;;;;;7.21;99.36;100011.34;5093322;28;20011;-36
2023/02/24 00:16:04;;;;;;;;;;;;;;;7.10;98.95;100011.75;5092985;28;19935;-35
2023/02/24 00:18:31;;;;;;;;;;;;;;;6.88;99.04;100006.25;5092814;28;20007;-35
2023/02/24 00:21:02;;;;;;;;;;;;;;;6.97;98.91;100004.41;5093004;28;19919;-35
2023/02/24 00:23:27;;;;;;;;;;;;;;;6.91;98.70;100005.91;5092819;28;19912;-37
2023/02/24 00:26:02;;;;;;;;;;;;;;;6.71;99.81;100005.50;5092720;28;20330;-37
2023/02/24 00:28:28;;;;;;;;;;;;;;;6.68;100.00;100002.34;5092777;28;19912;-37
2023/02/24 00:30:54;;;;;;;;;;;;;;;6.59;100.00;99997.13;5092987;28;20357;-37
2023/02/24 00:33:22;;;;;;;;;;;;;;;6.50;100.00;99999.97;5092900;28;19912;-36
2023/02/24 00:35:48;;;;;;;;;;;;;;;6.83;100.00;99988.25;5092640;28;20398;-37
2023/02/24 00:38:13;;;;;;;;;;;;;;;6.58;100.00;99998.09;5092515;28;19916;-38
2023/02/24 00:40:40;;;;;;;;;;;;;;;6.37;100.00;99993.38;5092811;28;19912;-37
2023/02/24 00:43:07;;;;;;;;;;;;;;;6.56;100.00;99989.50;5092464;28;20300;-37
2023/02/24 00:45:35;;;;;;;;;;;;;;;6.59;100.00;99991.81;5090549;28;19924;-37
2023/02/24 00:48:03;;;;;;;;;;;;;;;6.74;99.29;99994.56;5083034;28;20283;-37
2023/02/24 00:50:29;;;;;;;;;;;;;;;6.80;98.71;99987.78;5080381;28;20279;-37
2023/02/24 00:52:55;;;;;;;;;;;;;;;6.57;99.97;99975.31;5091436;28;19912;-37
2023/02/24 00:55:22;;;;;;;;;;;;;;;6.41;99.82;99978.81;5092347;28;19984;-37
2023/02/24 00:57:49;;;;;;;;;;;;;;;6.40;100.00;99968.44;5092280;28;19998;-37
2023/02/24 01:00:15;;;;;;;;;;;;;;;6.49;99.43;99969.22;5090804;28;20439;-37
2023/02/24 01:02:43;;;;;;;;;;;;;;;6.51;99.34;99962.78;5092454;28;19916;-37
2023/02/24 01:05:09;;;;;;;;;;;;;;;6.75;98.48;99974.22;5092173;28;20360;-37
2023/02/24 01:07:34;;;;;;;;;;;;;;;6.63;97.93;99964.03;5092152;28;20101;-37
2023/02/24 01:09:59;;;;;;;;;;;;;;;6.75;96.76;99964.47;5092102;28;20300;-37
2023/02/24 01:15:10;;;;;;;;;;;;;;;7.10;96.34;99951.72;5092295;28;19919;-35
2023/02/24 01:17:36;;;;;;;;;;;;;;;7.14;95.43;99960.94;5092015;28;19946;-36
2023/02/24 01:20:15;;;;;;;;;;;;;;;6.94;95.14;99955.28;5091775;28;19912;-36
2023/02/24 01:22:41;;;;;;;;;;;;;;;6.90;96.12;99948.69;5091907;28;20380;-36
2023/02/24 01:25:07;;;;;;;;;;;;;;;6.92;96.03;99956.44;5091716;28;19931;-37
2023/02/24 01:27:35;;;;;;;;;;;;;;;6.79;95.56;99947.25;5092208;28;19923;-37
2023/02/24 01:30:01;;;;;;;;;;;;;;;6.94;95.54;99949.97;5091566;28;20290;-35
2023/02/24 01:32:27;;;;;;;;;;;;;;;6.92;95.59;99953.81;5091268;28;19922;-36
2023/02/24 01:34:52;;;;;;;;;;;;;;;6.60;97.21;99950.34;5091571;28;19972;-42
2023/02/24 01:37:18;;;;;;;;;;;;;;;6.80;96.17;99962.13;5091559;28;19935;-42
2023/02/24 01:39:45;;;;;;;;;;;;;;;6.79;96.74;99943.78;5091536;28;19912;-43
2023/02/24 01:42:15;;;;;;;;;;;;;;;6.91;96.99;99953.00;5091046;28;19912;-43
2023/02/24 01:44:42;;;;;;;;;;;;;;;7.00;94.73;99957.22;5091580;28;19966;-43
2023/02/24 01:47:08;;;;;;;;;;;;;;;7.30;93.32;99959.19;5091463;28;19912;-42
2023/02/24 01:49:37;;;;;;;;;;;;;;;7.24;92.27;99950.94;5091524;28;20372;-43
2023/02/24 01:52:11;;;;;;;;;;;;;;;7.03;92.01;99943.63;5091503;28;19912;-42
2023/02/24 01:54:41;;;;;;;;;;;;;;;7.00;92.04;99957.22;5091270;28;19923;-42
2023/02/24 01:57:08;;;;;;;;;;;;;;;6.88;92.35;99949.88;5091432;28;19980;-42
2023/02/24 01:59:34;;;;;;;;;;;;;;;6.74;92.41;99944.31;5091413;28;19916;-42
2023/02/24 02:02:03;;;;;;;;;;;;;;;6.79;92.06;99943.78;5091198;28;20386;-42
2023/02/24 02:04:44;;;;;;;;;;;;;;;7.08;91.82;99937.81;5090220;28;19916;-42
2023/02/24 02:07:14;;;;;;;;;;;;;;;6.74;91.54;99944.31;5091391;28;20023;-43
2023/02/24 02:09:40;;;;;;;;;;;;;;;7.15;91.27;99944.06;5090558;28;20315;-43
2023/02/24 02:12:06;;;;;;;;;;;;;;;6.99;90.12;99949.47;5091476;28;20272;-42
2023/02/24 02:14:31;;;;;;;;;;;;;;;6.59;91.72;99946.88;5090974;28;20368;-43
2023/02/24 02:17:09;;;;;;;;;;;;;;;6.54;91.26;99943.91;5091377;28;19923;-43
2023/02/24 02:19:46;;;;;;;;;;;;;;;6.96;90.60;99933.94;5091001;28;19923;-45
2023/02/24 02:22:25;;;;;;;;;;;;;;;6.77;89.63;99943.97;5091219;28;19912;-43
2023/02/24 02:24:53;;;;;;;;;;;;;;;6.56;90.80;99930.53;5090842;28;19927;-42
2023/02/24 02:27:35;;;;;;;;;;;;;;;6.55;91.62;99936.78;5091157;28;19954;-43
2023/02/24 02:30:18;;;;;;;;;;;;;;;6.76;90.24;99939.69;5091131;28;19912;-43
2023/02/24 02:33:00;;;;;;;;;;;;;;;6.77;89.14;99937.84;5091317;28;20333;-42
2023/02/24 02:35:30;;;;;;;;;;;;;;;6.96;88.23;99933.94;5090688;28;19920;-42
2023/02/24 02:38:07;;;;;;;;;;;;;;;6.98;88.43;99932.75;5090822;28;20352;-43
2023/02/24 02:40:41;;;;;;;;;;;;;;;6.95;87.52;99940.22;5090765;28;19912;-42
2023/02/24 02:43:10;;;;;;;;;;;;;;;7.05;87.71;99938.19;5091173;28;19965;-42
2023/02/24 02:45:39;;;;;;;;;;;;;;;6.97;87.78;99933.78;5090611;28;19920;-42
2023/02/24 02:48:16;;;;;;;;;;;;;;;7.02;86.72;99944.63;5091010;28;19912;-42
2023/02/24 02:50:50;;;;;;;;;;;;;;;6.80;88.11;99956.84;5089620;28;19912;-43
2023/02/24 02:53:23;;;;;;;;;;;;;;;6.81;88.62;99955.00;5090735;28;19912;-43
2023/02/24 02:55:55;;;;;;;;;;;;;;;6.89;87.13;99956.78;5091107;28;19939;-44
2023/02/24 02:58:25;;;;;;;;;;;;;;;6.87;88.02;99959.59;5090985;28;19912;-43
2023/02/24 03:01:00;;;;;;;;;;;;;;;6.87;86.92;99956.97;5090922;28;19916;-43
2023/02/24 03:03:27;;;;;;;;;;;;;;;6.86;87.10;99965.91;5090763;28;19913;-43
2023/02/24 03:05:59;;;;;;;;;;;;;;;6.90;86.58;99956.63;5090544;28;19916;-43
2023/02/24 03:08:28;;;;;;;;;;;;;;;7.24;85.80;99956.25;5090508;28;19912;-43
2023/02/24 03:10:56;;;;;;;;;;;;;;;7.18;85.24;99954.31;5090792;28;19933;-44
2023/02/24 03:13:24;;;;;;;;;;;;;;;7.07;86.47;99946.75;5090365;28;19916;-43
2023/02/24 03:15:50;;;;;;;;;;;;;;;6.74;87.12;99946.13;5091454;28;19922;-43
2023/02/24 03:18:21;;;;;;;;;;;;;;;6.75;87.41;99953.06;5094193;28;19912;-42
2023/02/24 03:20:55;;;;;;;;;;;;;;;6.87;87.71;99949.03;5094428;28;20386;-43
2023/02/24 03:23:25;;;;;;;;;;;;;;;6.67;88.02;99953.94;5093862;28;19962;-43
2023/02/24 03:25:50;;;;;;;;;;;;;;;6.95;86.13;99954.28;5094338;28;19969;-42
2023/02/24 03:28:36;;;;;;;;;;;;;;;7.12;85.09;99954.16;5094118;28;19916;-43
2023/02/24 03:31:06;;;;;;;;;;;;;;;7.09;85.12;99951.88;5093787;28;19920;-42
2023/02/24 03:33:37;;;;;;;;;;;;;;;7.35;84.01;99949.72;5094340;28;19936;-43
2023/02/24 03:36:03;;;;;;;;;;;;;;;7.17;83.33;99942.06;5094107;28;19951;-42
2023/02/24 03:38:31;;;;;;;;;;;;;;;7.13;84.58;99942.59;5093907;28;19974;-42
2023/02/24 03:40:57;;;;;;;;;;;;;;;7.15;84.26;99943.25;5093556;28;20010;-43
2023/02/24 03:43:25;;;;;;;;;;;;;;;7.27;83.82;99939.16;5093279;28;19916;-43
2023/02/24 03:45:50;;;;;;;;;;;;;;;7.26;84.28;99934.06;5093500;28;20445;-42
2023/02/24 03:48:16;;;;;;;;;;;;;;;7.46;83.12;99929.09;5093440;28;19912;-43
2023/02/24 03:50:42;;;;;;;;;;;;;;;7.14;83.97;99937.13;5093399;28;19912;-42
2023/02/24 03:53:29;;;;;;;;;;;;;;;7.21;84.34;99931.94;5093682;28;20360;-43
2023/02/24 03:55:59;;;;;;;;;;;;;;;7.26;83.52;99926.13;5093726;28;20440;-43
2023/02/24 03:58:45;;;;;;;;;;;;;;;7.07;83.86;99922.94;5092918;28;19912;-42
2023/02/24 04:01:17;;;;;;;;;;;;;;;7.20;83.41;99920.53;5093870;28;19944;-42
2023/02/24 04:03:48;;;;;;;;;;;;;;;7.14;83.61;99928.34;5093507;28;20293;-44
2023/02/24 04:06:19;;;;;;;;;;;;;;;7.25;83.37;99922.63;5093239;28;19946;-42
2023/02/24 04:08:49;;;;;;;;;;;;;;;7.27;84.26;99925.94;5093019;28;19965;-42
2023/02/24 04:11:31;;;;;;;;;;;;;;;7.18;83.46;99925.19;5093010;28;20435;-42
2023/02/24 04:14:05;;;;;;;;;;;;;;;7.42;83.33;99923.34;5092830;28;19923;-42
2023/02/24 04:16:47;;;;;;;;;;;;;;;7.05;83.80;99922.31;5092489;28;19916;-42
2023/02/24 04:19:16;;;;;;;;;;;;;;;7.06;84.04;99923.94;5092933;28;19919;-42
2023/02/24 04:21:43;;;;;;;;;;;;;;;7.14;83.95;99925.69;5092913;28;19934;-42
2023/02/24 04:24:13;;;;;;;;;;;;;;;7.19;83.56;99918.06;5092743;28;19924;-42
2023/02/24 04:26:40;;;;;;;;;;;;;;;7.55;81.88;99912.16;5092634;28;20318;-42
2023/02/24 04:29:06;;;;;;;;;;;;;;;7.52;82.43;99920.44;5092161;28;19942;-42
2023/02/24 04:31:32;;;;;;;;;;;;;;;7.53;82.05;99912.31;5092908;28;19912;-42
2023/02/24 04:33:59;;;;;;;;;;;;;;;7.38;82.01;99906.97;5092545;28;20385;-41
2023/02/24 04:36:24;;;;;;;;;;;;;;;7.35;82.55;99907.34;5092799;28;20272;-42
2023/02/24 04:38:49;;;;;;;;;;;;;;;7.03;84.19;99900.50;5092659;28;20462;-42
2023/02/24 04:41:21;;;;;;;;;;;;;;;7.11;82.33;99889.84;5092364;28;20326;-41
2023/02/24 04:43:47;;;;;;;;;;;;;;;7.18;82.80;99892.59;5092372;28;19916;-41
2023/02/24 04:46:13;;;;;;;;;;;;;;;7.59;82.69;99893.06;5092339;28;19912;-41
2023/02/24 04:48:38;;;;;;;;;;;;;;;7.57;81.85;99894.25;5092143;28;19923;-42
2023/02/24 04:51:05;;;;;;;;;;;;;;;7.79;81.35;99906.63;5088976;28;19916;-42
2023/02/24 04:53:31;;;;;;;;;;;;;;;7.46;80.46;99906.09;5073354;28;20272;-41
2023/02/24 04:55:57;;;;;;;;;;;;;;;7.56;80.68;99892.63;5071869;28;19923;-36
2023/02/24 04:58:27;;;;;;;;;;;;;;;6.87;82.72;99888.19;5072078;28;19913;-36
2023/02/24 05:00:52;;;;;;;;;;;;;;;6.71;83.63;99897.06;5080363;28;19965;-35
2023/02/24 05:03:19;;;;;;;;;;;;;;;6.74;83.93;99903.81;5110839;28;19919;-36
2023/02/24 05:05:51;;;;;;;;;;;;;;;7.29;84.37;99894.84;5112391;28;19916;-36
2023/02/24 05:08:17;;;;;;;;;;;;;;;7.63;81.40;99894.34;5110805;28;19920;-36
2023/02/24 05:10:43;;;;;;;;;;;;;;;7.76;82.56;99898.19;5112175;28;19939;-36
2023/02/24 05:13:12;;;;;;;;;;;;;;;8.30;87.64;99903.25;5092749;28;19916;-36
2023/02/24 05:15:39;;;;;;;;;;;;;;;9.09;80.48;99899.03;5092680;28;20333;-36
2023/02/24 05:18:08;;;;;;;;;;;;;;;9.04;73.33;99901.41;5101336;28;19923;-41
2023/02/24 05:23:44;;;;;;;;;;;;;;;8.03;76.77;99896.75;5083485;28;19918;-41
2023/02/24 05:26:10;;;;;;;;;;;;;;;7.99;77.69;99898.13;5075170;28;19920;-42
2023/02/24 05:28:39;;;;;;;;;;;;;;;8.27;76.31;99900.13;5091078;28;19969;-42
2023/02/24 05:31:07;;;;;;;;;;;;;;;8.03;76.74;99896.75;5089258;28;20291;-42
2023/02/24 05:33:32;;;;;;;;;;;;;;;7.75;77.52;99905.34;5090001;28;19919;-42
2023/02/24 05:36:02;;;;;;;;;;;;;;;7.71;79.07;99901.41;5090479;28;19922;-42
2023/02/24 05:38:28;;;;;;;;;;;;;;;8.73;81.64;99903.34;5090362;28;20069;-42
2023/02/24 05:41:03;;;;;;;;;;;;;;;9.20;72.63;99901.19;5089949;28;19920;-42
2023/02/24 05:43:30;;;;;;;;;;;;;;;9.57;70.68;99900.03;5089943;28;19916;-42
2023/02/24 05:45:58;;;;;;;;;;;;;;;9.39;70.44;99905.81;5088506;28;19943;-42
2023/02/24 05:48:23;;;;;;;;;;;;;;;9.04;71.69;99906.72;5089619;28;19923;-42
2023/02/24 05:50:53;;;;;;;;;;;;;;;9.16;71.91;99903.38;5089468;28;20280;-42
2023/02/24 05:53:19;;;;;;;;;;;;;;;9.08;71.19;99902.69;5088642;28;19919;-42
2023/02/24 05:55:44;;;;;;;;;;;;;;;8.52;72.87;99908.63;5088725;28;19916;-42
2023/02/24 05:58:10;;;;;;;;;;;;;;;8.31;74.26;99914.66;5089614;28;20053;-42
2023/02/24 06:00:38;;;;;;;;;;;;;;;8.55;73.23;99911.72;5089344;28;19942;-43
2023/02/24 06:03:08;;;;;;;;;;;;;;;8.70;72.70;99917.00;5089342;28;20011;-42
2023/02/24 06:05:34;;;;;;;;;;;;;;;8.78;72.61;99908.13;5090327;28;19916;-36
2023/02/24 06:08:10;;;;;;;;;;;;;;;8.80;72.02;99911.41;5085186;28;19912;-37
2023/02/24 06:10:36;;;;;;;;;;;;;;;9.14;71.05;99915.22;5084390;28;19924;-37
2023/02/24 06:13:01;;;;;;;;;;;;;;;8.94;71.13;99918.47;5102112;28;19934;-37
2023/02/24 06:15:27;;;;;;;;;;;;;;;8.87;71.48;99916.75;5098739;28;20017;-36
2023/02/24 06:17:55;;;;;;;;;;;;;;;8.79;71.43;99912.38;5099757;28;19912;-36
2023/02/24 06:20:22;;;;;;;;;;;;;;;8.59;72.88;99912.19;5084858;28;19947;-36
2023/02/24 06:22:47;;;;;;;;;;;;;;;8.74;72.35;99912.97;5089724;28;19912;-36
2023/02/24 06:25:12;;;;;;;;;;;;;;;8.85;71.79;99914.28;5086877;28;19921;-36
2023/02/24 06:27:38;;;;;;;;;;;;;;;8.99;70.41;99912.63;5100964;28;20041;-35
2023/02/24 06:30:09;;;;;;;;;;;;;;;8.56;72.19;99900.09;5094269;28;19920;-35
2023/02/24 06:32:34;;;;;;;;;;;;;;;8.54;72.74;99911.91;5102884;28;20058;-37
2023/02/24 06:35:00;;;;;;;;;;;;;;;8.13;73.44;99884.06;5097301;28;20007;-35
2023/02/24 06:37:25;;;;;;;;;;;;;;;8.48;72.99;99910.00;5106169;28;20389;-36
2023/02/24 06:39:51;;;;;;;;;;;;;;;8.77;72.36;99911.75;5093544;28;19955;-35
2023/02/24 06:42:16;;;;;;;;;;;;;;;8.53;72.00;99907.59;5108977;28;19916;-36
2023/02/24 06:44:41;;;;;;;;;;;;;;;7.59;76.58;99898.34;5097425;28;19924;-36
2023/02/24 06:47:09;;;;;;;;;;;;;;;7.77;76.02;99899.84;5104126;28;20276;-36
2023/02/24 06:49:35;;;;;;;;;;;;;;;7.69;76.62;99895.47;5111580;28;20389;-37
2023/02/24 06:52:02;;;;;;;;;;;;;;;7.84;76.94;99890.16;5114297;28;20565;-37
2023/02/24 06:54:29;;;;;;;;;;;;;;;8.01;74.28;99893.44;5113771;28;19922;-36
2023/02/24 06:56:55;;;;;;;;;;;;;;;7.77;76.24;99886.63;5113124;28;20382;-37
2023/02/24 06:59:21;;;;;;;;;;;;;;;7.29;78.61;99900.13;5113467;28;19942;-36
2023/02/24 07:01:47;;;;;;;;;;;;;;;7.74;77.66;99892.25;5113937;28;20004;-36
2023/02/24 07:06:39;;;;;;;;;;;;;;;7.88;76.78;99890.63;5113960;28;19919;-35
2023/02/24 07:09:07;;;;;;;;;;;;;;;8.07;75.03;99889.25;5112490;28;19954;-36
2023/02/24 07:11:33;;;;;;;;;;;;;;;8.84;73.19;99885.31;5112151;28;19986;-36
2023/02/24 07:13:58;;;;;;;;;;;;;;;8.92;71.74;99883.34;5112229;28;20061;-36
2023/02/24 07:16:24;;;;;;;;;;;;;;;9.36;70.62;99878.81;5072625;28;20003;-38
2023/02/24 07:18:55;;;;;;;;;;;;;;;9.52;68.74;99873.25;5072960;28;19923;-36
2023/02/24 07:21:22;;;;;;;;;;;;;;;9.86;67.87;99870.78;5072637;28;19975;-35
2023/02/24 07:23:48;;;;;;;;;;;;;;;9.42;68.78;99874.59;5092260;28;19920;-37
2023/02/24 07:26:18;;;;;;;;;;;;;;;9.59;68.59;99882.09;5093041;28;19924;-37
2023/02/24 07:28:44;;;;;;;;;;;;;;;9.50;68.59;99877.09;5093257;28;19919;-36
2023/02/24 07:31:11;;;;;;;;;;;;;;;9.49;68.19;99880.78;5093161;28;20269;-37
2023/02/24 07:33:42;;;;;;;;;;;;;;;9.81;67.82;99870.56;5093432;28;19912;-36
2023/02/24 07:36:13;;;;;;;;;;;;;;;10.07;67.00;99881.34;5093121;28;20309;-35
2023/02/24 07:38:39;;;;;;;;;;;;;;;10.36;66.01;99879.47;5093189;28;19927;-36
2023/02/24 07:41:05;;;;;;;;;;;;;;;10.45;65.24;99878.28;5093252;28;19955;-37
2023/02/24 07:43:34;;;;;;;;;;;;;;;10.77;63.78;99883.88;5093377;28;20380;-35
2023/02/24 07:46:10;;;;;;;;;;;;;;;10.91;63.81;99874.91;5085678;28;19981;-37
2023/02/24 07:48:36;;;;;;;;;;;;;;;11.19;62.76;99871.25;5073519;28;19912;-37
2023/02/24 07:51:05;;;;;;;;;;;;;;;11.32;62.07;99876.56;5073348;28;20350;-36
2023/02/24 07:53:31;;;;;;;;;;;;;;;11.35;61.23;99872.69;5072718;28;20363;-37
2023/02/24 07:55:56;;;;;;;;;;;;;;;11.29;62.34;99874.34;5072198;28;19938;-37
2023/02/24 07:58:22;;;;;;;;;;;;;;;11.48;60.85;99870.03;5072442;28;20000;-36
2023/02/24 08:00:59;;;;;;;;;;;;;;;11.38;61.10;99866.94;5072833;28;20376;-36
2023/02/24 08:03:26;;;;;;;;;;;;;;;11.11;62.04;99861.59;5071361;28;19919;-37
2023/02/24 08:05:54;;;;;;;;;;;;;;;11.33;61.66;99864.91;5072269;28;20293;-36
2023/02/24 08:08:19;;;;;;;;;;;;;;;11.29;60.97;99841.53;5073028;28;19916;-38
2023/02/24 08:10:46;;;;;;;;;;;;;;;11.46;61.29;99871.25;5071263;28;19919;-37
2023/02/24 08:13:11;;;;;;;;;;;;;;;11.70;60.11;99867.13;5072000;28;19912;-36
2023/02/24 08:15:37;;;;;;;;;;;;;;;11.78;59.96;99864.22;5085677;28;19949;-36
2023/02/24 08:18:02;;;;;;;;;;;;;;;11.77;59.99;99867.13;5092007;28;19912;-36
2023/02/24 08:20:34;;;;;;;;;;;;;;;11.11;62.17;99858.94;5091580;28;19943;-37
2023/02/24 08:23:00;;;;;;;;;;;;;;;10.56;64.19;99866.22;5091933;28;20393;-36
2023/02/24 08:25:34;;;;;;;;;;;;;;;11.05;63.85;99862.44;5091765;28;19924;-36
2023/02/24 08:28:04;;;;;;;;;;;;;;;10.87;63.97;99870.19;5092319;28;19912;-37
2023/02/24 08:30:37;;;;;;;;;;;;;;;10.37;65.84;99870.44;5091891;28;20019;-37
2023/02/24 08:33:02;;;;;;;;;;;;;;;10.92;65.54;99873.88;5092200;28;19912;-36
2023/02/24 08:35:31;;;;;;;;;;;;;;;11.64;63.08;99876.75;5091888;28;19912;-36
2023/02/24 08:38:03;;;;;;;;;;;;;;;11.20;62.42;99866.75;5092702;28;19912;-37
2023/02/24 08:43:14;;;;;;;;;;;;;;;11.15;65.24;99872.69;5092117;28;19916;-36
2023/02/24 08:45:40;;;;;;;;;;;;;;;11.71;63.11;99868.78;5091691;28;19927;-36
2023/02/24 08:48:17;;;;;;;;;;;;;;;10.91;64.69;99866.13;5091940;28;19912;-36
2023/02/24 08:50:44;;;;;;;;;;;;;;;10.50;67.14;99867.03;5092097;28;19916;-37
2023/02/24 08:53:17;;;;;;;;;;;;;;;11.39;64.73;99857.13;5091588;28;19912;-36
2023/02/24 08:55:43;;;;;;;;;;;;;;;11.79;62.42;99857.88;5091518;28;20347;-36
2023/02/24 08:58:14;;;;;;;;;;;;;;;12.09;61.34;99852.91;5091580;28;20007;-36
2023/02/24 09:00:53;;;;;;;;;;;;;;;12.30;60.05;99859.81;5091666;28;19916;-37
2023/02/24 09:03:28;;;;;;;;;;;;;;;12.65;59.23;99858.59;5091484;28;19995;-37
2023/02/24 09:06:00;;;;;;;;;;;;;;;12.27;59.75;99851.41;5091233;28;19991;-36
2023/02/24 09:08:31;;;;;;;;;;;;;;;12.66;58.79;99849.56;5091321;28;20061;-37
2023/02/24 09:10:58;;;;;;;;;;;;;;;12.90;58.13;99845.28;5091567;28;19912;-36
2023/02/24 09:13:31;;;;;;;;;;;;;;;12.77;58.69;99837.38;5090647;28;19911;-36
2023/02/24 09:15:57;;;;;;;;;;;;;;;12.74;59.11;99845.81;5074246;28;20410;-36
2023/02/24 09:18:29;;;;;;;;;;;;;;;13.12;58.51;99835.09;5071022;28;19912;-36
2023/02/24 09:21:29;;;;;;;;;;;;;;;12.78;59.08;99833.69;5071313;28;20271;-37
2023/02/24 09:23:45;;;;;;;;;;;;;;;13.21;57.97;99831.09;5088826;28;20401;-36
2023/02/24 09:26:12;;;;;;;;;;;;;;;13.55;56.61;99828.16;5090992;28;19927;-37
2023/02/24 09:28:47;;;;;;;;;;;;;;;13.17;57.91;99827.22;5091429;28;19943;-36
2023/02/24 09:31:15;;;;;;;;;;;;;;;13.76;56.00;99826.91;5091210;28;19912;-36
2023/02/24 09:33:42;;;;;;;;;;;;;;;13.92;55.34;99807.59;5091442;28;19918;-37
2023/02/24 09:36:26;;;;;;;;;;;;;;;14.18;54.85;99811.78;5090452;28;19925;-38
2023/02/24 09:41:30;;;;;;;;;;;;;;;13.96;55.50;99797.28;5091100;28;20264;-36
2023/02/24 09:44:02;;;;;;;;;;;;;;;14.31;54.68;99793.94;5090596;28;19920;-37
2023/02/24 09:46:32;;;;;;;;;;;;;;;14.40;54.33;99797.94;5090678;28;20272;-36
2023/02/24 09:49:05;;;;;;;;;;;;;;;14.74;53.30;99787.59;5080163;28;19912;-37
2023/02/24 09:51:41;;;;;;;;;;;;;;;14.28;54.16;99790.66;5081166;28;20323;-37
2023/02/24 09:54:14;;;;;;;;;;;;;;;14.32;54.10;99785.69;5078519;28;20019;-37
2023/02/24 09:57:08;;;;;;;;;;;;;;;13.78;54.86;99779.34;5081555;28;19940;-36
2023/02/24 09:59:34;;;;;;;;;;;;;;;13.21;57.13;99776.81;5079186;28;19912;-37
2023/02/24 10:02:16;;;;;;;;;;;;;;;13.94;55.99;99768.06;5079984;28;19968;-36
2023/02/24 10:04:52;;;;;;;;;;;;;;;12.29;58.79;99767.44;5078282;28;20170;-36
2023/02/24 10:07:37;;;;;;;;;;;;;;;12.66;59.01;99772.13;5077964;28;19935;-37
2023/02/24 10:10:18;;;;;;;;;;;;;;;13.35;57.16;99761.53;5077962;28;19912;-36
2023/02/24 10:12:47;;;;;;;;;;;;;;;13.20;56.77;99762.66;5080606;28;19969;-36
2023/02/24 10:15:31;;;;;;;;;;;;;;;13.95;55.12;99758.16;5076543;28;19935;-36
2023/02/24 10:17:58;;;;;;;;;;;;;;;14.23;54.71;99754.91;5080558;28;20245;-36
2023/02/24 10:20:43;;;;;;;;;;;;;;;14.91;52.85;99744.84;5081433;28;19912;-37
2023/02/24 10:23:28;;;;;;;;;;;;;;;15.31;51.47;99730.78;5079730;28;20280;-36
2023/02/24 10:25:55;;;;;;;;;;;;;;;15.10;51.43;99722.28;5090242;28;19969;-37
2023/02/24 10:28:21;;;;;;;;;;;;;;;15.50;50.88;99723.38;5094642;28;19918;-36
2023/02/24 10:31:00;;;;;;;;;;;;;;;15.89;49.59;99724.47;5080900;28;19947;-37
2023/02/24 10:33:47;;;;;;;;;;;;;;;15.89;49.11;99716.41;5074799;28;19947;-37
2023/02/24 10:36:15;;;;;;;;;;;;;;;16.17;48.91;99715.59;5074457;28;19919;-38
2023/02/24 10:38:44;;;;;;;;;;;;;;;15.96;48.62;99706.38;5074303;28;20401;-37
2023/02/24 10:41:10;;;;;;;;;;;;;;;16.27;48.81;99698.88;5072283;28;20407;-37
2023/02/24 10:43:44;;;;;;;;;;;;;;;15.98;48.63;99703.44;5072551;28;19916;-37
2023/02/24 10:46:18;;;;;;;;;;;;;;;15.68;49.29;99691.03;5073335;28;19916;-36
2023/02/24 10:48:49;;;;;;;;;;;;;;;16.39;47.64;99685.38;5073610;28;20443;-37
2023/02/24 10:51:29;;;;;;;;;;;;;;;16.92;45.90;99680.59;5073820;28;19920;-36
2023/02/24 10:56:54;;;;;;;;;;;;;;;17.16;45.63;99679.31;5073232;28;19933;-37
2023/02/24 10:59:39;;;;;;;;;;;;;;;17.57;45.51;99673.63;5072896;28;20353;-37
2023/02/24 11:02:31;;;;;;;;;;;;;;;17.22;45.64;99682.09;5072736;28;19923;-37
2023/02/24 11:07:24;;;;;;;;;;;;;;;16.20;47.78;99660.59;5073368;28;19937;-36
2023/02/24 11:10:13;;;;;;;;;;;;;;;16.68;46.51;99661.09;5073673;28;19931;-36
2023/02/24 11:18:23;;;;;;;;;;;;;;;15.09;49.32;99656.31;5093503;28;20409;-36
2023/02/24 11:20:57;;;;;;;;;;;;;;;15.63;48.67;99651.53;5093734;28;19916;-37
2023/02/24 11:23:33;;;;;;;;;;;;;;;16.17;47.87;99645.00;5093424;28;19919;-37
2023/02/24 11:26:17;;;;;;;;;;;;;;;16.38;47.19;99638.09;5093403;28;19920;-37
2023/02/24 11:28:55;;;;;;;;;;;;;;;16.41;47.51;99633.06;5093870;28;19923;-39
2023/02/24 11:31:23;;;;;;;;;;;;;;;16.41;47.42;99625.00;5093508;28;19912;-36
2023/02/24 11:34:07;;;;;;;;;;;;;;;16.72;46.36;99622.78;5093438;28;20003;-36
2023/02/24 11:36:45;;;;;;;;;;;;;;;16.87;46.58;99621.38;5093388;28;20009;-38
2023/02/24 11:39:29;;;;;;;;;;;;;;;17.07;45.25;99615.47;5093061;28;19928;-37
2023/02/24 11:41:57;;;;;;;;;;;;;;;17.26;44.86;99616.78;5093451;28;20348;-38
2023/02/24 11:44:28;;;;;;;;;;;;;;;17.45;44.21;99611.91;5093476;28;20014;-38
2023/02/24 11:47:01;;;;;;;;;;;;;;;17.59;44.12;99615.00;5093223;28;19931;-38
2023/02/24 11:49:26;;;;;;;;;;;;;;;16.90;44.58;99594.81;5093281;28;19942;-39
2023/02/24 11:51:53;;;;;;;;;;;;;;;16.42;46.66;99593.59;5093284;28;19912;-37
2023/02/24 11:54:18;;;;;;;;;;;;;;;15.76;47.25;99601.34;5093334;28;19912;-36
2023/02/24 11:57:02;;;;;;;;;;;;;;;15.66;48.33;99601.13;5093369;28;20284;-37
2023/02/24 11:59:31;;;;;;;;;;;;;;;16.21;47.42;99592.44;5093507;28;20020;-38
2023/02/24 12:02:06;;;;;;;;;;;;;;;16.64;46.01;99585.59;5093189;28;19919;-36
2023/02/24 12:04:50;;;;;;;;;;;;;;;16.43;46.77;99584.47;5093219;28;19920;-37
2023/02/24 12:07:22;;;;;;;;;;;;;;;16.07;47.15;99591.97;5092977;28;19947;-37
2023/02/24 12:09:53;;;;;;;;;;;;;;;14.77;50.18;99580.88;5092989;28;20416;-36
2023/02/24 12:12:26;;;;;;;;;;;;;;;14.71;50.90;99577.25;5092651;28;20007;-37
2023/02/24 12:15:01;;;;;;;;;;;;;;;14.56;51.56;99580.38;5092949;28;19912;-38
2023/02/24 12:17:26;;;;;;;;;;;;;;;13.82;53.38;99566.56;5092691;28;20062;-43
2023/02/24 12:20:04;;;;;;;;;;;;;;;14.03;53.79;99570.56;5092797;28;20061;-43
2023/02/24 12:22:44;;;;;;;;;;;;;;;14.57;52.01;99570.53;5092689;28;19912;-44
2023/02/24 12:25:11;;;;;;;;;;;;;;;15.07;51.31;99575.34;5089754;28;20298;-41
2023/02/24 12:27:40;;;;;;;;;;;;;;;14.82;50.33;99568.41;5092387;28;19916;-42
2023/02/24 12:30:32;;;;;;;;;;;;;;;14.38;52.48;99564.44;5092506;28;20354;-43
2023/02/24 12:33:16;;;;;;;;;;;;;;;14.48;52.43;99559.31;5091637;28;19997;-44
2023/02/24 12:36:01;;;;;;;;;;;;;;;15.09;49.89;99556.34;5092442;28;20397;-41
2023/02/24 12:38:27;;;;;;;;;;;;;;;15.23;50.00;99545.13;5092267;28;19916;-41
2023/02/24 12:40:55;;;;;;;;;;;;;;;14.68;50.96;99547.44;5092208;28;19919;-43
2023/02/24 12:43:47;;;;;;;;;;;;;;;14.62;51.87;99546.53;5092077;28;19913;-43
2023/02/24 12:46:29;;;;;;;;;;;;;;;15.73;48.88;99540.94;5092104;28;19935;-43
2023/02/24 12:48:54;;;;;;;;;;;;;;;14.62;50.83;99535.81;5091991;28;20342;-42
2023/02/24 12:51:19;;;;;;;;;;;;;;;14.51;52.23;99531.25;5092111;28;19920;-42
2023/02/24 12:53:51;;;;;;;;;;;;;;;15.38;49.95;99533.03;5092471;28;19939;-42
2023/02/24 12:56:16;;;;;;;;;;;;;;;15.45;49.17;99522.97;5092146;28;19923;-42
2023/02/24 12:58:44;;;;;;;;;;;;;;;15.06;49.95;99512.09;5091210;28;19912;-42
2023/02/24 13:01:20;;;;;;;;;;;;;;;15.70;49.46;99505.72;5091612;28;19938;-43
2023/02/24 13:03:48;;;;;;;;;;;;;;;15.69;47.80;99509.44;5091283;28;20395;-43
2023/02/24 13:06:13;;;;;;;;;;;;;;;15.00;49.96;99507.66;5091424;28;19924;-42
2023/02/24 13:08:38;;;;;;;;;;;;;;;15.09;50.02;99502.75;5091519;28;19967;-43
2023/02/24 13:11:11;;;;;;;;;;;;;;;14.86;49.44;99493.72;5091491;28;19924;-42
2023/02/24 13:13:45;;;;;;;;;;;;;;;14.59;50.83;99488.09;5091290;28;19912;-42
2023/02/24 13:16:11;;;;;;;;;;;;;;;14.43;51.71;99486.91;5091049;28;19912;-43
2023/02/24 13:18:38;;;;;;;;;;;;;;;15.38;49.33;99487.47;5091117;28;19912;-44
2023/02/24 13:21:08;;;;;;;;;;;;;;;15.85;47.52;99483.72;5091325;28;19912;-42
2023/02/24 13:23:35;;;;;;;;;;;;;;;14.52;50.83;99480.16;5091142;28;19916;-44
2023/02/24 13:26:01;;;;;;;;;;;;;;;14.80;51.12;99468.69;5090923;28;19935;-41
2023/02/24 13:28:27;;;;;;;;;;;;;;;15.56;48.93;99463.13;5091149;28;19912;-43
2023/02/24 13:31:01;;;;;;;;;;;;;;;14.80;50.32;99458.00;5090707;28;19912;-42
2023/02/24 13:33:32;;;;;;;;;;;;;;;14.66;50.73;99465.50;5090765;28;19912;-42